Time;durP1;ratioP1;P1;durP2;ratioP2;P2;SDS_P1;SDS_P2;PMS_P1;PMS_P2;Temp;Humidity;BMP_temperature;BMP_pressure;BME280_temperature;BME280_humidity;BME280_pressure;Samples;Min_cycle;Max_cycle;Signal;HPM_P1;HPM_P2
2022/02/11 00:02:17;;;;;;;4.85;4.47;;;4.30;99.90;;;;;;4910566;29;20749;-86
2022/02/11 00:12:23;;;;;;;4.28;3.97;;;3.90;99.90;;;;;;4864703;29;20250;-87
2022/02/11 00:19:10;;;;;;;6.25;5.20;;;4.10;99.90;;;;;;4832019;29;20686;-87
2022/02/11 00:22:22;;;;;;;5.03;4.72;;;5.80;99.90;;;;;;4773248;29;20678;-86
2022/02/11 00:32:15;;;;;;;6.75;5.85;;;4.50;99.90;;;;;;4795444;29;20196;-86
2022/02/11 00:34:48;;;;;;;5.40;5.00;;;6.10;99.90;;;;;;4853798;29;20256;-86
2022/02/11 00:37:23;;;;;;;5.65;5.35;;;3.90;99.90;;;;;;4839902;29;20228;-85
2022/02/11 01:04:28;;;;;;;6.85;6.30;;;6.30;99.90;;;;;;4897891;29;20267;-85
2022/02/11 01:06:59;;;;;;;9.67;6.70;;;4.60;99.90;;;;;;4898339;29;20200;-84
2022/02/11 01:09:24;;;;;;;8.10;6.95;;;5.30;99.90;;;;;;4886044;29;20465;-85
2022/02/11 01:11:53;;;;;;;7.33;6.63;;;4.50;99.90;;;;;;4923841;29;20239;-84
2022/02/11 01:14:37;;;;;;;6.47;5.30;;;3.90;99.90;;;;;;4883526;29;20225;-86
2022/02/11 01:26:03;;;;;;;10.05;7.80;;;4.00;99.90;;;;;;4910018;29;20216;-85
2022/02/11 01:29:14;;;;;;;9.57;8.68;;;2.00;99.90;;;;;;4907671;29;20200;-85
2022/02/11 01:40:41;;;;;;;10.77;9.77;;;5.70;99.90;;;;;;4882534;29;20287;-86
2022/02/11 01:51:36;;;;;;;12.77;10.60;;;3.00;99.90;;;;;;4888143;29;20193;-85
2022/02/11 02:06:38;;;;;;;12.20;10.20;;;3.30;99.90;;;;;;4824208;29;20303;-86
2022/02/11 02:25:42;;;;;;;14.38;11.32;;;5.30;99.90;;;;;;4915584;29;20199;-84
2022/02/11 02:57:50;;;;;;;15.07;11.48;;;4.90;99.90;;;;;;4926550;29;20190;-86
2022/02/11 03:51:46;;;;;;;22.25;14.13;;;2.90;99.90;;;;;;4904245;29;20228;-86
2022/02/11 03:57:31;;;;;;;9.85;8.07;;;1.70;99.90;;;;;;4908428;29;20263;-86
2022/02/11 04:55:05;;;;;;;15.68;11.25;;;2.90;99.90;;;;;;4900873;29;20252;-86
2022/02/11 05:00:24;;;;;;;14.85;10.55;;;3.40;99.90;;;;;;4900353;29;20969;-87
2022/02/11 05:02:50;;;;;;;14.90;11.30;;;;;;;;;;4907224;29;20283;-85
2022/02/11 05:05:17;;;;;;;9.35;8.32;;;3.60;99.90;;;;;;4910573;29;20175;-85
2022/02/11 05:07:47;;;;;;;17.42;11.05;;;6.80;99.90;;;;;;4887537;29;20199;-86
2022/02/11 05:10:13;;;;;;;15.32;10.90;;;6.80;99.90;;;;;;4891817;29;20240;-86
2022/02/11 05:12:41;;;;;;;14.90;11.50;;;;;;;;;;4889118;29;20664;-86
2022/02/11 05:15:09;;;;;;;9.75;7.63;;;3.60;99.90;;;;;;4891098;29;20216;-86
2022/02/11 05:17:39;;;;;;;13.80;10.52;;;4.00;99.90;;;;;;4882636;29;20192;-88
2022/02/11 05:20:08;;;;;;;9.38;7.63;;;4.10;99.90;;;;;;4913186;29;20251;-86
2022/02/11 05:22:35;;;;;;;12.80;11.50;;;3.70;99.90;;;;;;4903522;29;20681;-87
2022/02/11 05:25:11;;;;;;;;;;;;;;;;;;;;;
2022/02/11 05:27:37;;;;;;;18.10;11.85;;;4.70;99.90;;;;;;4908931;29;20204;-86
2022/02/11 05:30:04;;;;;;;19.33;11.57;;;6.50;99.90;;;;;;4889115;29;20248;-86
2022/02/11 05:35:04;;;;;;;13.00;10.50;;;3.80;99.90;;;;;;4906102;29;20229;-84
2022/02/11 05:37:30;;;;;;;16.80;10.90;;;3.80;99.90;;;;;;4914014;29;20650;-86
2022/02/11 05:39:56;;;;;;;21.20;9.73;;;3.80;99.90;;;;;;4896571;29;20189;-85
2022/02/11 05:42:21;;;;;;;11.90;9.60;;;3.80;99.90;;;;;;4914102;29;20250;-85
2022/02/11 05:44:47;;;;;;;12.70;9.87;;;3.50;99.90;;;;;;4892476;29;20901;-85
2022/02/11 05:47:13;;;;;;;13.47;10.50;;;5.10;99.90;;;;;;4907596;29;20708;-85
2022/02/11 05:49:38;;;;;;;11.63;8.53;;;3.30;99.90;;;;;;4921539;29;20188;-86
2022/02/11 05:52:05;;;;;;;15.57;10.70;;;3.80;99.90;;;;;;4904182;29;20184;-87
2022/02/11 05:54:33;;;;;;;14.10;9.05;;;3.70;99.90;;;;;;4910465;29;20299;-86
2022/02/11 05:57:34;;;;;;;12.43;8.68;;;5.10;99.90;;;;;;4890955;29;20190;-86
2022/02/11 06:00:09;;;;;;;15.63;8.55;;;4.10;99.90;;;;;;4879382;29;21057;-86
2022/02/11 06:02:35;;;;;;;14.55;8.45;;;4.10;99.90;;;;;;4895599;29;20195;-87
2022/02/11 06:05:01;;;;;;;12.00;8.90;;;4.70;99.90;;;;;;4914234;29;20235;-86
2022/02/11 06:07:27;;;;;;;10.95;8.63;;;3.30;99.90;;;;;;4912290;29;20200;-86
2022/02/11 06:09:53;;;;;;;15.23;8.80;;;3.30;99.90;;;;;;4913431;29;20583;-85
2022/02/11 06:12:18;;;;;;;12.83;9.07;;;3.70;99.90;;;;;;4911566;29;20204;-85
2022/02/11 06:14:45;;;;;;;10.43;8.20;;;4.00;99.90;;;;;;4913823;29;20508;-86
2022/02/11 06:17:11;;;;;;;15.05;8.48;;;4.20;99.90;;;;;;4895068;29;20659;-83
2022/02/11 06:19:36;;;;;;;10.67;7.10;;;4.00;99.90;;;;;;4912324;29;20278;-87
2022/02/11 06:22:02;;;;;;;12.73;6.07;;;4.00;99.90;;;;;;4911676;29;20188;-85
2022/02/11 06:24:28;;;;;;;17.08;7.90;;;4.60;99.90;;;;;;4928738;29;20183;-84
2022/02/11 06:26:54;;;;;;;13.30;8.87;;;4.60;99.90;;;;;;4913146;29;20199;-85
2022/02/11 06:29:19;;;;;;;12.40;7.17;;;4.00;99.90;;;;;;4909465;29;20184;-86
2022/02/11 06:31:45;;;;;;;14.50;9.20;;;;;;;;;;4914079;29;20648;-85
2022/02/11 06:34:14;;;;;;;18.25;8.40;;;4.20;99.90;;;;;;4919312;29;20287;-85
2022/02/11 06:36:39;;;;;;;22.15;7.55;;;5.30;99.90;;;;;;4912723;29;20242;-82
2022/02/11 06:39:05;;;;;;;16.70;8.10;;;3.60;99.90;;;;;;4913274;29;20191;-84
2022/02/11 06:41:32;;;;;;;20.97;8.97;;;4.30;99.90;;;;;;4915965;29;20191;-87
2022/02/11 06:43:57;;;;;;;16.25;8.60;;;4.30;99.90;;;;;;4920354;29;20692;-87
2022/02/11 06:46:23;;;;;;;26.03;15.03;;;7.60;99.90;;;;;;4915371;29;20490;-83
2022/02/11 06:48:49;;;;;;;15.17;9.43;;;5.50;99.90;;;;;;4912215;29;20203;-85
2022/02/11 06:51:15;;;;;;;15.60;7.87;;;3.40;99.90;;;;;;4932381;29;20221;-87
2022/02/11 06:53:42;;;;;;;16.25;7.72;;;4.30;99.90;;;;;;4904432;29;20439;-87
2022/02/11 06:56:09;;;;;;;14.98;9.52;;;5.80;99.90;;;;;;4930745;29;20703;-83
2022/02/11 06:58:34;;;;;;;18.23;8.30;;;4.50;99.90;;;;;;4913939;29;20251;-86
2022/02/11 07:01:00;;;;;;;13.93;8.67;;;4.60;99.90;;;;;;4911668;29;20694;-84
2022/02/11 07:03:26;;;;;;;22.73;8.43;;;4.00;99.90;;;;;;4910685;29;20196;-82
2022/02/11 07:05:54;;;;;;;16.60;7.63;;;4.20;99.90;;;;;;4907329;29;20196;-83
2022/02/11 07:08:20;;;;;;;12.02;5.00;;;4.30;99.90;;;;;;4913694;29;20554;-80
2022/02/11 07:10:46;;;;;;;4.93;4.20;;;4.30;99.90;;;;;;4919020;29;20199;-85
2022/02/11 07:13:14;;;;;;;3.47;3.20;;;5.10;99.90;;;;;;4911516;29;20911;-86
2022/02/11 07:15:44;;;;;;;12.60;4.15;;;4.00;99.90;;;;;;4910733;29;20570;-85
2022/02/11 07:18:11;;;;;;;6.23;3.40;;;4.20;99.90;;;;;;4583935;29;10000270;-85
2022/02/11 07:20:38;;;;;;;7.80;3.85;;;3.80;99.90;;;;;;4908655;29;20203;-84
2022/02/11 07:23:05;;;;;;;9.13;5.45;;;3.20;99.90;;;;;;4912341;29;20200;-83
2022/02/11 07:25:33;;;;;;;7.43;6.60;;;3.70;99.90;;;;;;4906235;29;20356;-84
2022/02/11 07:27:59;;;;;;;11.93;10.65;;;3.00;99.90;;;;;;4907561;29;20678;-83
2022/02/11 07:30:25;;;;;;;13.10;9.32;;;4.10;99.90;;;;;;4906950;29;20279;-84
2022/02/11 07:32:54;;;;;;;22.15;12.07;;;4.00;99.90;;;;;;4910414;29;20279;-85
2022/02/11 07:35:21;;;;;;;15.60;9.38;;;4.00;99.90;;;;;;4909194;29;20362;-82
2022/02/11 07:37:47;;;;;;;19.05;7.78;;;3.00;99.90;;;;;;4926491;29;20559;-82
2022/02/11 07:40:13;;;;;;;7.83;5.50;;;4.60;99.90;;;;;;4928002;29;20187;-82
2022/02/11 07:42:41;;;;;;;15.55;6.10;;;4.10;99.90;;;;;;4926087;29;20777;-82
2022/02/11 07:45:11;;;;;;;10.90;4.13;;;4.40;99.90;;;;;;4926823;29;20266;-83
2022/02/11 07:47:40;;;;;;;15.25;4.22;;;3.90;99.90;;;;;;4924988;29;20274;-82
2022/02/11 07:50:07;;;;;;;20.42;4.72;;;4.40;99.90;;;;;;4927891;29;20258;-82
2022/02/11 07:52:33;;;;;;;13.52;3.80;;;4.50;99.90;;;;;;4925788;29;20203;-83
2022/02/11 07:54:59;;;;;;;8.52;3.65;;;4.60;99.90;;;;;;4926907;29;20222;-82
2022/02/11 07:57:26;;;;;;;12.93;3.00;;;4.60;99.90;;;;;;4922270;29;20199;-83
2022/02/11 07:59:52;;;;;;;17.98;3.15;;;6.70;99.90;;;;;;4927727;29;20274;-82
2022/02/11 08:02:18;;;;;;;5.17;2.77;;;4.70;99.90;;;;;;4921895;29;20199;-84
2022/02/11 08:04:43;;;;;;;5.80;2.73;;;4.60;99.90;;;;;;4925769;29;20452;-80
2022/02/11 08:07:10;;;;;;;12.50;3.07;;;4.90;99.90;;;;;;4926405;29;20190;-82
2022/02/11 08:09:35;;;;;;;11.88;3.92;;;4.40;99.90;;;;;;4927949;29;20233;-82
2022/02/11 08:12:02;;;;;;;6.13;2.00;;;4.40;99.90;;;;;;4896670;29;20236;-82
2022/02/11 08:14:30;;;;;;;6.32;3.38;;;4.70;99.90;;;;;;4918424;29;20215;-83
2022/02/11 08:16:56;;;;;;;18.50;2.20;;;4.20;99.90;;;;;;4920131;29;20386;-82
2022/02/11 08:19:22;;;;;;;6.03;2.00;;;6.30;99.90;;;;;;4907165;29;20191;-82
2022/02/11 08:21:49;;;;;;;7.03;2.40;;;4.80;99.90;;;;;;4927613;29;20195;-81
2022/02/11 08:24:15;;;;;;;3.58;2.70;;;4.50;99.90;;;;;;4929090;29;20194;-80
2022/02/11 08:26:41;;;;;;;6.27;1.63;;;5.90;99.90;;;;;;4927156;29;20172;-83
2022/02/11 08:29:08;;;;;;;6.90;1.50;;;5.20;99.90;;;;;;4927466;29;20198;-84
2022/02/11 08:31:37;;;;;;;2.88;2.47;;;5.00;99.90;;;;;;4910453;29;20433;-87
2022/02/11 08:34:03;;;;;;;5.60;2.22;;;5.30;99.90;;;;;;4902627;29;20251;-85
2022/02/11 08:36:29;;;;;;;5.47;2.70;;;5.00;99.90;;;;;;4907541;29;20191;-85
2022/02/11 08:39:16;;;;;;;7.07;2.40;;;4.90;99.90;;;;;;4914819;29;20184;-86
2022/02/11 08:41:41;;;;;;;5.88;1.80;;;5.60;99.90;;;;;;4907367;29;20471;-87
2022/02/11 08:44:07;;;;;;;8.67;2.80;;;4.00;99.90;;;;;;4908648;29;20183;-80
2022/02/11 08:46:33;;;;;;;6.30;2.90;;;6.70;99.90;;;;;;4888822;29;20961;-86
2022/02/11 08:49:30;;;;;;;3.73;2.30;;;7.00;99.90;;;;;;4898667;29;20188;-88
2022/02/11 08:51:58;;;;;;;5.55;2.38;;;4.00;99.90;;;;;;4909821;29;20626;-87
2022/02/11 08:54:24;;;;;;;8.38;3.45;;;6.10;99.90;;;;;;4912675;29;20223;-86
2022/02/11 08:56:49;;;;;;;8.83;4.60;;;7.60;99.90;;;;;;4905976;29;20219;-84
2022/02/11 08:59:16;;;;;;;8.63;2.03;;;6.00;99.90;;;;;;4916862;29;20195;-83
2022/02/11 09:01:42;;;;;;;13.43;2.85;;;4.80;99.90;;;;;;4916522;29;20681;-85
2022/02/11 09:04:08;;;;;;;11.15;3.50;;;5.00;99.90;;;;;;4913125;29;20202;-85
2022/02/11 09:06:34;;;;;;;16.40;2.97;;;6.10;99.90;;;;;;4909032;29;20664;-84
2022/02/11 09:09:00;;;;;;;4.37;1.73;;;5.10;99.90;;;;;;4911352;29;20734;-84
2022/02/11 09:11:26;;;;;;;6.47;1.92;;;5.10;99.90;;;;;;4908858;29;20949;-84
2022/02/11 09:13:52;;;;;;;6.27;1.90;;;4.50;99.90;;;;;;4909280;29;20212;-85
2022/02/11 09:16:18;;;;;;;11.88;2.70;;;5.20;99.90;;;;;;4891781;29;20203;-84
2022/02/11 09:18:44;;;;;;;6.50;2.10;;;6.20;99.90;;;;;;4895657;29;20235;-84
2022/02/11 09:21:10;;;;;;;4.85;2.55;;;5.30;99.90;;;;;;4911106;29;20447;-85
2022/02/11 09:23:36;;;;;;;9.00;2.20;;;5.40;99.90;;;;;;4915856;29;20251;-85
2022/02/11 09:26:03;;;;;;;8.30;2.33;;;5.40;99.90;;;;;;4893696;29;20440;-83
2022/02/11 09:28:29;;;;;;;4.10;2.10;;;5.70;99.90;;;;;;4903095;29;20558;-85
2022/02/11 09:30:55;;;;;;;6.18;2.70;;;7.20;99.90;;;;;;4909547;29;20632;-83
2022/02/11 09:33:21;;;;;;;12.50;2.97;;;6.00;99.90;;;;;;4893635;29;20352;-85
2022/02/11 09:35:49;;;;;;;11.33;2.43;;;7.50;99.90;;;;;;4893698;29;20311;-85
2022/02/11 09:38:15;;;;;;;4.40;2.20;;;5.70;99.90;;;;;;4896459;29;20369;-85
2022/02/11 09:40:44;;;;;;;4.68;1.83;;;6.10;99.90;;;;;;4911319;29;20203;-85
2022/02/11 09:43:15;;;;;;;10.48;2.40;;;6.10;99.90;;;;;;4914989;29;20188;-85
2022/02/11 09:45:41;;;;;;;13.43;2.85;;;6.20;99.90;;;;;;4909632;29;20623;-85
2022/02/11 09:48:07;;;;;;;8.70;2.58;;;9.10;99.90;;;;;;4897892;29;20195;-84
2022/02/11 09:50:33;;;;;;;8.10;2.43;;;6.20;99.90;;;;;;4911099;29;20569;-84
2022/02/11 09:52:59;;;;;;;6.20;2.95;;;6.70;99.90;;;;;;4915834;29;20183;-85
2022/02/11 09:55:40;;;;;;;6.50;2.73;;;8.00;99.90;;;;;;4901455;29;20310;-83
2022/02/11 09:58:15;;;;;;;10.77;3.83;;;7.20;99.90;;;;;;4892114;29;20436;-84
2022/02/11 10:00:44;;;;;;;11.25;2.65;;;6.90;99.90;;;;;;4908300;29;20194;-86
2022/02/11 10:03:20;;;;;;;12.03;3.17;;;8.00;99.90;;;;;;4896196;29;20183;-85
2022/02/11 10:05:55;;;;;;;10.70;2.50;;;9.40;99.90;;;;;;4915286;29;20825;-84
2022/02/11 10:08:26;;;;;;;3.57;2.73;;;10.00;99.90;;;;;;4571728;29;9999891;-83
2022/02/11 10:10:56;;;;;;;7.97;2.57;;;9.90;99.90;;;;;;4894058;29;20260;-86
2022/02/11 10:13:32;;;;;;;12.77;3.23;;;10.40;99.90;;;;;;4893147;29;20474;-86
2022/02/11 10:16:01;;;;;;;10.80;3.30;;;9.40;99.90;;;;;;4910336;29;20450;-82
2022/02/11 10:18:30;;;;;;;9.93;4.00;;;8.60;99.90;;;;;;4909800;29;20431;-81
2022/02/11 10:21:00;;;;;;;9.65;3.33;;;8.90;99.90;;;;;;4911330;29;20515;-76
2022/02/11 10:23:40;;;;;;;6.20;2.33;;;10.30;99.90;;;;;;4901723;29;20231;-80
2022/02/11 10:26:14;;;;;;;8.27;3.50;;;8.80;99.90;;;;;;4911667;29;20527;-80
2022/02/11 10:28:55;;;;;;;12.73;2.77;;;9.40;99.90;;;;;;4897413;29;20458;-82
2022/02/11 10:31:31;;;;;;;2.53;2.13;;;9.50;99.90;;;;;;4906065;29;20442;-81
2022/02/11 10:34:00;;;;;;;11.05;3.17;;;10.50;99.90;;;;;;4896933;29;21020;-82
2022/02/11 10:36:28;;;;;;;9.60;3.10;;;11.40;99.90;;;;;;4913759;29;20203;-86
2022/02/11 10:39:07;;;;;;;5.83;3.17;;;8.80;99.90;;;;;;4926925;29;20917;-85
2022/02/11 10:41:36;;;;;;;2.77;2.00;;;9.60;99.90;;;;;;4901549;29;20445;-82
2022/02/11 10:44:11;;;;;;;5.57;2.50;;;12.90;99.90;;;;;;4915562;29;20435;-84
2022/02/11 10:46:43;;;;;;;9.03;2.77;;;9.60;99.90;;;;;;4930940;29;20872;-82
2022/02/11 10:49:10;;;;;;;11.63;2.30;;;9.40;99.90;;;;;;4930831;29;20419;-80
2022/02/11 10:51:42;;;;;;;12.87;3.03;;;11.00;99.90;;;;;;4929506;29;20522;-82
2022/02/11 10:54:28;;;;;;;8.70;2.47;;;8.10;99.90;;;;;;4915368;29;20502;-84
2022/02/11 10:57:05;;;;;;;7.83;4.13;;;8.30;99.90;;;;;;4930373;29;20442;-84
2022/02/11 10:59:37;;;;;;;9.20;3.55;;;7.80;99.90;;;;;;4916298;29;20423;-84
2022/02/11 11:02:26;;;;;;;6.47;3.15;;;8.70;99.90;;;;;;4926441;29;20736;-83
2022/02/11 11:05:01;;;;;;;7.23;2.57;;;8.50;99.90;;;;;;4918840;29;20391;-87
2022/02/11 11:07:30;;;;;;;9.90;4.27;;;10.70;99.90;;;;;;4930145;29;20495;-78
2022/02/11 11:09:56;;;;;;;9.93;3.08;;;8.80;99.90;;;;;;4915266;29;20895;-87
2022/02/11 11:12:25;;;;;;;8.43;3.03;;;8.50;99.90;;;;;;4930973;29;20657;-87
2022/02/11 11:14:54;;;;;;;5.90;2.65;;;8.50;99.90;;;;;;4931633;29;20475;-84
2022/02/11 11:17:31;;;;;;;7.05;2.33;;;10.20;99.90;;;;;;4915136;29;20246;-84
2022/02/11 11:19:58;;;;;;;7.68;3.58;;;8.00;99.90;;;;;;4930401;29;20179;-82
2022/02/11 11:22:28;;;;;;;9.32;2.13;;;7.90;99.90;;;;;;4927233;29;20450;-85
2022/02/11 11:25:01;;;;;;;10.03;4.53;;;10.00;99.90;;;;;;4933935;29;20239;-85
2022/02/11 11:27:50;;;;;;;7.93;2.35;;;9.30;99.90;;;;;;4915163;29;20435;-84
2022/02/11 11:30:27;;;;;;;7.95;3.13;;;6.10;99.90;;;;;;4930222;29;20550;-85
2022/02/11 11:33:05;;;;;;;8.40;2.70;;;7.90;99.90;;;;;;4914826;29;20171;-86
2022/02/11 11:35:35;;;;;;;13.20;2.17;;;7.90;99.90;;;;;;4909663;29;20242;-83
2022/02/11 11:38:14;;;;;;;5.75;2.30;;;7.50;99.90;;;;;;4898434;29;20207;-84
2022/02/11 11:40:54;;;;;;;7.97;1.52;;;8.00;99.90;;;;;;4897246;29;20204;-86
2022/02/11 11:43:34;;;;;;;3.08;2.53;;;7.90;99.90;;;;;;4916518;29;20168;-86
2022/02/11 11:46:45;;;;;;;5.63;2.50;;;7.80;99.90;;;;;;4915076;29;20196;-83
2022/02/11 11:51:44;;;;;;;5.32;2.40;;;7.70;99.90;;;;;;4945944;29;20295;-87
2022/02/11 11:54:22;;;;;;;5.15;2.47;;;7.80;99.90;;;;;;4935137;29;20231;-82
2022/02/11 11:56:55;;;;;;;4.72;1.92;;;8.70;99.90;;;;;;4915815;29;20185;-82
2022/02/11 11:59:25;;;;;;;9.68;2.63;;;11.40;99.90;;;;;;4915859;29;20178;-82
2022/02/11 12:01:54;;;;;;;7.53;2.60;;;8.60;99.90;;;;;;4923162;29;20220;-82
2022/02/11 12:04:30;;;;;;;1.65;1.55;;;8.40;99.90;;;;;;4918526;29;20211;-84
2022/02/11 12:07:05;;;;;;;10.07;3.45;;;9.70;99.90;;;;;;4901301;29;20199;-82
2022/02/11 12:09:31;;;;;;;3.97;1.73;;;8.60;99.90;;;;;;4912376;29;20967;-80
2022/02/11 12:12:04;;;;;;;7.28;2.03;;;8.40;99.90;;;;;;4931943;29;20207;-83
2022/02/11 12:14:31;;;;;;;9.48;3.70;;;8.40;99.90;;;;;;4914600;29;20207;-83
2022/02/11 12:16:59;;;;;;;9.27;2.70;;;9.00;99.90;;;;;;4930452;29;20194;-83
2022/02/11 12:19:26;;;;;;;2.17;1.92;;;9.10;99.90;;;;;;4911556;29;20195;-83
2022/02/11 12:21:59;;;;;;;5.78;1.75;;;9.40;99.90;;;;;;4902226;29;20195;-84
2022/02/11 12:27:30;;;;;;;6.95;1.95;;;8.80;98.60;;;;;;4937337;29;20747;-82
2022/02/11 12:30:06;;;;;;;5.55;1.58;;;8.50;98.40;;;;;;4913174;29;20659;-78
2022/02/11 12:32:34;;;;;;;6.93;2.23;;;8.80;95.90;;;;;;4912424;29;20198;-84
2022/02/11 12:35:02;;;;;;;4.17;1.63;;;9.00;95.70;;;;;;4942551;29;20478;-83
2022/02/11 12:37:29;;;;;;;2.83;1.20;;;9.10;93.40;;;;;;4924889;29;20435;-82
2022/02/11 12:40:10;;;;;;;3.03;1.37;;;10.50;92.20;;;;;;4926240;29;20450;-86
2022/02/11 12:42:39;;;;;;;1.50;1.20;;;9.70;78.90;;;;;;4923124;29;20942;-84
2022/02/11 12:45:08;;;;;;;2.80;1.70;;;9.80;79.50;;;;;;4915852;29;20498;-87
2022/02/11 12:47:35;;;;;;;4.37;1.60;;;10.50;68.10;;;;;;4925263;29;20451;-86
2022/02/11 12:50:06;;;;;;;2.30;1.70;;;11.70;66.20;;;;;;4938761;29;20463;-86
2022/02/11 12:52:36;;;;;;;1.50;1.30;;;10.90;62.80;;;;;;4903828;29;20459;-83
2022/02/11 12:55:11;;;;;;;1.20;1.13;;;11.20;58.50;;;;;;4930618;29;20299;-83
2022/02/11 12:57:52;;;;;;;7.70;1.70;;;11.60;54.80;;;;;;4910819;29;20498;-87
2022/02/11 13:00:27;;;;;;;2.97;1.23;;;11.60;56.80;;;;;;4930456;29;20499;-86
2022/02/11 13:02:58;;;;;;;2.10;1.80;;;11.00;62.30;;;;;;4894162;29;20444;-85
2022/02/11 13:05:26;;;;;;;2.33;1.77;;;12.10;61.00;;;;;;4912808;29;20445;-79
2022/02/11 13:07:57;;;;;;;3.57;1.60;;;12.60;62.70;;;;;;4930318;29;20435;-81
2022/02/11 13:10:25;;;;;;;2.00;1.60;;;10.20;62.10;;;;;;4907834;29;20509;-85
2022/02/11 13:13:01;;;;;;;4.13;1.50;;;10.00;68.40;;;;;;4927510;29;20432;-86
2022/02/11 13:15:30;;;;;;;4.70;1.50;;;9.80;68.50;;;;;;4931319;29;20474;-84
2022/02/11 13:18:12;;;;;;;2.70;1.40;;;9.80;68.70;;;;;;4930439;29;20432;-85
2022/02/11 13:20:42;;;;;;;2.30;1.27;;;9.90;68.90;;;;;;4896193;29;20472;-83
2022/02/11 13:23:15;;;;;;;5.13;2.00;;;10.80;60.40;;;;;;4947016;29;20439;-80
2022/02/11 13:25:48;;;;;;;3.20;1.90;;;11.80;71.00;;;;;;4933033;29;20427;-82
2022/02/11 13:28:16;;;;;;;4.07;1.83;;;9.80;61.50;;;;;;4924800;29;20455;-86
2022/02/11 13:30:47;;;;;;;4.30;1.80;;;12.40;65.00;;;;;;4946879;29;20424;-88
2022/02/11 13:33:39;;;;;;;3.87;1.50;;;10.70;61.90;;;;;;4907759;29;20699;-85
2022/02/11 13:36:10;;;;;;;3.10;1.70;;;8.60;62.40;;;;;;4921853;29;20450;-83
2022/02/11 13:38:46;;;;;;;2.90;1.60;;;9.60;63.90;;;;;;4902322;29;20238;-83
2022/02/11 13:41:15;;;;;;;5.10;1.70;;;9.70;67.80;;;;;;4921094;29;20481;-85
2022/02/11 13:43:49;;;;;;;2.43;0.97;;;8.90;71.60;;;;;;4898116;29;20928;-84
2022/02/11 13:46:29;;;;;;;2.30;1.33;;;9.20;69.10;;;;;;4880137;29;20423;-85
2022/02/11 13:48:56;;;;;;;3.25;1.75;;;8.70;73.90;;;;;;4915707;29;20531;-80
2022/02/11 13:51:23;;;;;;;4.50;1.95;;;8.80;79.40;;;;;;4875315;29;20231;-82
2022/02/11 13:53:53;;;;;;;7.90;4.35;;;8.80;91.90;;;;;;4921578;29;20845;-81
2022/02/11 13:56:35;;;;;;;5.22;2.40;;;8.20;97.10;;;;;;4894407;29;20505;-81
2022/02/11 13:59:06;;;;;;;5.60;1.90;;;8.70;99.90;;;;;;4878268;29;20503;-82
2022/02/11 14:01:34;;;;;;;6.13;2.43;;;8.60;99.90;;;;;;4212943;29;10000581;-81
2022/02/11 14:04:04;;;;;;;11.10;4.00;;;8.70;99.90;;;;;;4901175;29;20213;-81
2022/02/11 14:06:37;;;;;;;5.70;2.37;;;8.80;99.90;;;;;;4891673;29;20205;-81
2022/02/11 14:09:06;;;;;;;2.58;1.65;;;9.00;99.70;;;;;;4902053;29;20975;-81
2022/02/11 14:11:40;;;;;;;6.97;2.40;;;9.10;99.60;;;;;;4881131;29;20212;-80
2022/02/11 14:14:17;;;;;;;11.32;1.85;;;9.00;99.40;;;;;;4904047;29;20296;-81
2022/02/11 14:16:44;;;;;;;7.20;2.08;;;8.90;98.90;;;;;;4890096;29;20208;-82
2022/02/11 14:19:10;;;;;;;6.53;2.67;;;9.00;99.60;;;;;;4923568;29;20194;-80
2022/02/11 14:21:36;;;;;;;5.33;1.67;;;8.90;99.50;;;;;;4884572;29;20200;-82
2022/02/11 14:24:02;;;;;;;5.57;2.00;;;8.80;99.30;;;;;;4900639;29;20961;-80
2022/02/11 14:26:31;;;;;;;5.27;2.37;;;8.80;99.20;;;;;;4912187;29;20443;-82
2022/02/11 14:28:57;;;;;;;7.07;2.63;;;8.40;98.40;;;;;;4889712;29;20448;-81
2022/02/11 14:31:23;;;;;;;9.67;2.03;;;9.70;99.00;;;;;;4881615;29;20212;-83
2022/02/11 14:33:49;;;;;;;6.23;2.20;;;8.50;98.60;;;;;;4892350;29;20289;-79
2022/02/11 14:36:14;;;;;;;3.33;1.80;;;8.60;99.40;;;;;;4894261;29;20473;-82
2022/02/11 14:38:40;;;;;;;7.40;2.30;;;8.40;98.20;;;;;;4886415;29;20444;-81
2022/02/11 14:43:51;;;;;;;4.53;2.33;;;8.20;99.40;;;;;;4902573;29;20316;-83
2022/02/11 14:46:17;;;;;;;7.77;2.60;;;8.40;99.40;;;;;;4901495;29;20531;-82
2022/02/11 14:48:42;;;;;;;5.80;2.30;;;8.30;99.80;;;;;;4885066;29;20290;-83
2022/02/11 14:51:09;;;;;;;6.23;1.90;;;8.30;98.00;;;;;;4886301;29;20232;-82
2022/02/11 14:53:35;;;;;;;3.97;2.60;;;8.30;98.10;;;;;;4909150;29;20282;-81
2022/02/11 14:56:38;;;;;;;8.07;2.17;;;8.40;98.40;;;;;;4902106;29;20296;-81
2022/02/11 14:59:04;;;;;;;4.90;2.10;;;8.40;97.80;;;;;;4885086;29;20428;-82
2022/02/11 15:01:30;;;;;;;4.88;1.63;;;10.30;96.70;;;;;;4901703;29;20196;-81
2022/02/11 15:03:57;;;;;;;5.90;2.00;;;8.80;97.50;;;;;;4885306;29;20285;-81
2022/02/11 15:06:31;;;;;;;3.78;2.00;;;9.20;95.90;;;;;;4904820;29;20508;-80
2022/02/11 15:08:57;;;;;;;4.30;2.08;;;9.90;91.70;;;;;;4897844;29;20188;-78
2022/02/11 15:11:23;;;;;;;3.40;1.90;;;10.20;90.30;;;;;;4904617;29;20195;-83
2022/02/11 15:13:49;;;;;;;6.65;2.30;;;10.30;86.80;;;;;;4917460;29;20187;-82
2022/02/11 15:16:55;;;;;;;12.70;2.17;;;9.60;85.70;;;;;;4906244;29;20203;-81
2022/02/11 15:19:43;;;;;;;5.80;1.77;;;9.80;87.10;;;;;;4912811;29;20187;-84
2022/02/11 15:22:19;;;;;;;6.80;2.43;;;10.10;83.50;;;;;;4907153;29;20428;-80
2022/02/11 15:25:09;;;;;;;3.67;2.35;;;8.80;83.70;;;;;;4902962;29;20808;-83
2022/02/11 15:27:50;;;;;;;6.55;1.25;;;10.00;88.10;;;;;;4907875;29;20244;-82
2022/02/11 15:31:03;;;;;;;7.00;1.85;;;9.60;90.80;;;;;;4919546;29;20240;-81
2022/02/11 15:34:30;;;;;;;5.38;1.70;;;8.90;89.60;;;;;;4926646;29;20244;-80
2022/02/11 15:37:22;;;;;;;5.85;1.58;;;10.40;85.60;;;;;;4918282;29;20216;-82
2022/02/11 15:39:49;;;;;;;1.80;1.80;;;8.30;85.40;;;;;;4898228;29;20182;-83
2022/02/11 15:42:18;;;;;;;1.70;1.60;;;7.80;80.10;;;;;;4892240;29;20239;-82
2022/02/11 15:44:47;;;;;;;2.50;1.23;;;7.00;74.10;;;;;;4909436;29;20184;-80
2022/02/11 15:47:13;;;;;;;2.75;1.60;;;8.70;79.50;;;;;;4888924;29;20652;-81
2022/02/11 15:49:38;;;;;;;4.82;1.98;;;8.10;80.30;;;;;;4885675;29;20216;-81
2022/02/11 15:52:07;;;;;;;2.13;2.03;;;8.80;77.90;;;;;;4908867;29;20204;-81
2022/02/11 15:54:33;;;;;;;2.55;1.73;;;8.10;70.70;;;;;;4903928;29;20702;-80
2022/02/11 15:56:59;;;;;;;6.93;1.50;;;9.70;77.20;;;;;;4892469;29;20176;-80
2022/02/11 15:59:26;;;;;;;4.80;4.40;;;10.80;73.20;;;;;;4901996;29;20839;-80
2022/02/11 16:01:55;;;;;;;4.18;1.45;;;8.60;73.20;;;;;;4904157;29;20169;-81
2022/02/11 16:04:23;;;;;;;2.05;1.60;;;9.80;72.90;;;;;;4888130;29;20199;-84
2022/02/11 16:06:57;;;;;;;4.97;1.40;;;10.10;73.80;;;;;;4910379;29;20183;-83
2022/02/11 16:09:29;;;;;;;1.90;1.27;;;8.30;70.40;;;;;;4909211;29;20233;-84
2022/02/11 16:11:58;;;;;;;1.88;1.10;;;8.30;75.50;;;;;;4895046;29;20172;-79
2022/02/11 16:14:27;;;;;;;4.65;4.15;;;8.70;80.30;;;;;;4893861;29;20219;-83
2022/02/11 16:16:53;;;;;;;2.95;1.30;;;9.20;81.90;;;;;;4907850;29;20172;-84
2022/02/11 16:19:25;;;;;;;1.45;1.35;;;6.80;75.60;;;;;;4911400;29;20222;-82
2022/02/11 16:21:54;;;;;;;2.55;1.25;;;8.00;78.20;;;;;;4910435;29;20249;-80
2022/02/11 16:24:20;;;;;;;1.40;1.30;;;7.40;75.90;;;;;;4890518;29;20216;-83
2022/02/11 16:26:45;;;;;;;6.13;1.47;;;7.10;77.10;;;;;;4890379;29;20713;-77
2022/02/11 16:29:17;;;;;;;1.97;1.87;;;6.30;79.20;;;;;;4908671;29;20208;-79
2022/02/11 16:31:44;;;;;;;3.47;0.93;;;6.90;81.00;;;;;;4891362;29;20441;-84
2022/02/11 16:34:13;;;;;;;1.63;1.38;;;6.90;79.90;;;;;;4889998;29;20204;-88
2022/02/11 16:36:42;;;;;;;2.35;1.45;;;7.20;82.00;;;;;;4903523;29;20344;-81
2022/02/11 16:39:13;;;;;;;2.53;1.65;;;7.90;80.00;;;;;;4904383;29;20192;-80
2022/02/11 16:41:41;;;;;;;3.97;1.88;;;6.30;77.60;;;;;;4895127;29;20173;-79
2022/02/11 16:44:07;;;;;;;1.95;1.58;;;6.40;81.40;;;;;;4884087;29;20563;-81
2022/02/11 16:46:36;;;;;;;1.50;1.40;;;6.50;78.60;;;;;;4887581;29;20183;-81
2022/02/11 16:49:08;;;;;;;4.18;2.10;;;6.80;79.90;;;;;;4899232;29;20480;-80
2022/02/11 16:51:34;;;;;;;5.35;1.90;;;9.60;83.70;;;;;;4902221;29;20223;-80
2022/02/11 16:54:00;;;;;;;2.47;0.95;;;7.00;81.80;;;;;;4883602;29;20208;-83
2022/02/11 16:56:27;;;;;;;4.70;2.97;;;6.90;83.50;;;;;;4905125;29;20184;-83
2022/02/11 16:58:53;;;;;;;1.80;1.55;;;6.40;87.00;;;;;;4891868;29;20184;-84
2022/02/11 17:01:20;;;;;;;5.50;3.22;;;7.90;86.50;;;;;;4905863;29;20291;-83
2022/02/11 17:03:45;;;;;;;4.70;3.20;;;8.80;93.40;;;;;;4889332;29;20550;-83
2022/02/11 17:06:13;;;;;;;6.70;2.13;;;6.90;93.90;;;;;;4886835;29;20274;-84
2022/02/11 17:08:43;;;;;;;8.07;2.10;;;7.00;91.60;;;;;;4905550;29;20433;-85
2022/02/11 17:11:13;;;;;;;4.55;1.77;;;6.80;90.30;;;;;;4885767;29;20201;-84
2022/02/11 17:13:39;;;;;;;6.10;3.17;;;6.90;91.60;;;;;;4904614;29;20202;-85
2022/02/11 17:16:09;;;;;;;2.43;2.00;;;6.90;92.30;;;;;;4889497;29;20471;-85
2022/02/11 17:18:36;;;;;;;7.28;2.10;;;6.80;92.60;;;;;;4897791;29;20252;-83
2022/02/11 17:21:03;;;;;;;5.15;2.40;;;6.10;93.10;;;;;;4885630;29;20247;-83
2022/02/11 17:23:30;;;;;;;2.80;2.60;;;9.10;95.10;;;;;;4898912;29;20211;-83